Time;durP1;ratioP1;P1;durP2;ratioP2;P2;SDS_P1;SDS_P2;PMS_P1;PMS_P2;Temp;Humidity;BMP_temperature;BMP_pressure;BME280_temperature;BME280_humidity;BME280_pressure;Samples;Min_cycle;Max_cycle;Signal;HPM_P1;HPM_P2
2023/03/22 00:02:24;;;;;;;5.33;4.53;;;;;;;10.51;100.00;94299.28;6209720;23;20198;-77
2023/03/22 00:04:53;;;;;;;5.30;4.77;;;;;;;10.45;100.00;94305.38;6208604;23;20499;-77
2023/03/22 00:07:20;;;;;;;5.37;4.77;;;;;;;10.42;100.00;94305.84;6208822;23;20201;-79
2023/03/22 00:09:46;;;;;;;6.07;4.97;;;;;;;10.31;100.00;94289.22;6209435;23;20181;-78
2023/03/22 00:12:13;;;;;;;8.33;5.13;;;;;;;10.36;100.00;94304.91;6210708;23;20170;-78
2023/03/22 00:14:40;;;;;;;7.17;5.60;;;;;;;10.23;100.00;94290.34;6208695;23;20166;-77
2023/03/22 00:17:07;;;;;;;7.63;5.73;;;;;;;10.34;100.00;94303.56;6207408;23;20733;-79
2023/03/22 00:19:34;;;;;;;10.23;7.40;;;;;;;10.36;100.00;94304.16;6208624;23;20174;-79
2023/03/22 00:22:05;;;;;;;12.20;8.73;;;;;;;10.40;100.00;94307.84;6210720;23;20193;-79
2023/03/22 00:24:32;;;;;;;14.53;10.03;;;;;;;10.39;100.00;94303.69;6209095;23;20543;-78
2023/03/22 00:26:59;;;;;;;19.03;12.50;;;;;;;10.38;100.00;94305.50;6210838;23;20517;-79
2023/03/22 00:29:28;;;;;;;21.33;12.87;;;;;;;10.42;100.00;94298.81;6211286;23;20510;-78
2023/03/22 00:31:55;;;;;;;21.47;13.50;;;;;;;10.40;100.00;94295.66;6211115;23;20183;-79
2023/03/22 00:34:22;;;;;;;20.97;12.53;;;;;;;10.39;100.00;94299.28;6212164;23;20170;-78
2023/03/22 00:36:50;;;;;;;20.40;12.60;;;;;;;10.28;100.00;94300.06;6211246;23;20170;-78
2023/03/22 00:39:18;;;;;;;20.27;13.20;;;;;;;10.35;100.00;94297.38;6210742;23;20174;-79
2023/03/22 00:41:45;;;;;;;17.27;12.33;;;;;;;10.33;100.00;94297.59;6212061;23;20178;-78
2023/03/22 00:44:12;;;;;;;19.17;12.03;;;;;;;10.25;100.00;94283.13;6213610;23;20670;-79
2023/03/22 00:46:39;;;;;;;18.13;10.77;;;;;;;10.23;100.00;94292.16;6212986;23;20178;-79
2023/03/22 00:49:06;;;;;;;16.77;10.33;;;;;;;10.25;100.00;94285.72;6211735;23;20193;-79
2023/03/22 00:51:32;;;;;;;14.60;9.50;;;;;;;10.13;100.00;94281.53;6211298;23;20523;-79
2023/03/22 00:53:59;;;;;;;12.37;9.00;;;;;;;10.04;100.00;94281.03;6211989;23;20552;-79
2023/03/22 00:56:28;;;;;;;11.03;7.80;;;;;;;9.88;100.00;94289.47;6212045;23;20486;-78
2023/03/22 00:58:55;;;;;;;9.33;7.17;;;;;;;9.68;100.00;94273.41;6211672;23;20194;-79
2023/03/22 01:01:22;;;;;;;9.83;7.50;;;;;;;9.71;100.00;94278.16;6212170;23;20236;-79
2023/03/22 01:03:49;;;;;;;9.67;7.67;;;;;;;9.60;100.00;94276.31;6211322;23;20190;-79
2023/03/22 01:06:16;;;;;;;9.53;7.27;;;;;;;9.49;100.00;94280.44;6212512;23;20170;-79
2023/03/22 01:08:43;;;;;;;10.67;7.80;;;;;;;9.45;100.00;94276.72;6211440;23;20471;-79
2023/03/22 01:11:11;;;;;;;8.73;7.60;;;;;;;9.49;100.00;94271.88;6210473;23;20253;-79
2023/03/22 01:13:42;;;;;;;11.70;8.40;;;;;;;9.50;100.00;94273.44;6211031;23;20170;-79
2023/03/22 01:16:10;;;;;;;13.50;9.37;;;;;;;9.52;100.00;94272.19;6212414;23;20169;-79
2023/03/22 01:18:37;;;;;;;13.40;9.20;;;;;;;9.61;100.00;94272.69;6212231;23;20790;-79
2023/03/22 01:21:04;;;;;;;13.30;10.40;;;;;;;9.61;100.00;94268.28;6211890;23;20176;-79
2023/03/22 01:23:31;;;;;;;16.70;10.27;;;;;;;9.52;100.00;94254.03;6211875;23;20251;-79
2023/03/22 01:25:58;;;;;;;13.87;10.20;;;;;;;9.67;100.00;94267.41;6210890;23;20174;-80
2023/03/22 01:28:25;;;;;;;14.47;10.37;;;;;;;9.58;100.00;94263.53;6211696;23;20194;-80
2023/03/22 01:30:54;;;;;;;15.13;10.83;;;;;;;9.42;100.00;94268.56;6208870;23;20249;-79
2023/03/22 01:33:21;;;;;;;14.37;10.97;;;;;;;9.41;100.00;94266.97;6209693;23;20638;-79
2023/03/22 01:35:48;;;;;;;17.17;12.37;;;;;;;9.45;100.00;94258.56;6209155;23;20285;-79
2023/03/22 01:38:15;;;;;;;18.97;12.73;;;;;;;9.50;100.00;94263.88;6210536;23;20177;-79
2023/03/22 01:40:42;;;;;;;21.17;13.50;;;;;;;9.58;100.00;94255.75;6211220;23;20173;-79
2023/03/22 01:43:14;;;;;;;17.07;12.47;;;;;;;9.58;100.00;94258.34;6209671;23;20193;-79
2023/03/22 01:45:44;;;;;;;13.50;10.17;;;;;;;9.57;100.00;94249.00;6211179;23;20162;-80
2023/03/22 01:48:26;;;;;;;17.67;12.10;;;;;;;9.59;100.00;94249.56;6211326;23;20205;-80
2023/03/22 01:51:06;;;;;;;20.57;12.77;;;;;;;9.54;100.00;94235.69;6212528;23;20204;-79
2023/03/22 01:53:39;;;;;;;19.63;13.50;;;;;;;9.69;100.00;94251.63;6216726;23;20206;-79
2023/03/22 01:56:07;;;;;;;15.47;10.77;;;;;;;9.66;100.00;94252.06;6212865;23;20198;-82
2023/03/22 01:58:37;;;;;;;15.10;11.00;;;;;;;9.62;100.00;94249.13;6210893;23;20630;-81
2023/03/22 02:01:06;;;;;;;14.70;9.57;;;;;;;9.54;100.00;94235.69;6211518;23;20170;-81
2023/03/22 02:03:43;;;;;;;14.90;8.63;;;;;;;9.62;100.00;94253.53;6212593;23;20625;-81
2023/03/22 02:06:10;;;;;;;12.20;8.47;;;;;;;9.61;100.00;94252.72;6213181;23;20158;-81
2023/03/22 02:08:39;;;;;;;11.20;8.63;;;;;;;9.63;100.00;94255.91;6212332;23;20251;-81
2023/03/22 02:11:06;;;;;;;10.53;8.23;;;;;;;9.66;100.00;94257.25;6212380;23;20188;-80
2023/03/22 02:13:47;;;;;;;13.77;9.73;;;;;;;9.58;100.00;94255.75;6211628;23;20170;-80
2023/03/22 02:16:29;;;;;;;15.77;9.90;;;;;;;9.42;100.00;94255.59;6213133;23;20220;-80
2023/03/22 02:19:19;;;;;;;13.40;10.13;;;;;;;9.33;100.00;94246.53;6212137;23;20150;-79
2023/03/22 02:22:30;;;;;;;14.03;10.37;;;;;;;9.33;100.00;94257.72;6211390;23;20158;-80
2023/03/22 02:26:03;;;;;;;12.20;8.57;;;;;;;9.39;100.00;94253.44;6090349;23;20228;-79
2023/03/22 02:28:42;;;;;;;12.93;8.80;;;;;;;9.38;100.00;94259.66;6178987;23;20907;-78
2023/03/22 02:31:26;;;;;;;10.90;9.07;;;;;;;9.37;100.00;94255.47;6177789;23;20255;-79
2023/03/22 02:34:35;;;;;;;11.37;8.97;;;;;;;9.35;100.00;94266.06;6206722;23;20173;-80
2023/03/22 02:37:37;;;;;;;9.93;7.00;;;;;;;9.37;100.00;94268.44;6173507;23;20173;-78
2023/03/22 02:40:14;;;;;;;8.47;6.50;;;;;;;9.38;100.00;94267.44;6179787;23;20173;-78
2023/03/22 02:42:50;;;;;;;9.93;7.67;;;;;;;9.41;100.00;94269.56;6210841;23;20158;-78
2023/03/22 02:45:20;;;;;;;8.73;6.60;;;;;;;9.40;100.00;94263.63;6211409;23;20162;-80
2023/03/22 02:47:54;;;;;;;11.83;6.40;;;;;;;9.43;100.00;94265.78;6212085;23;20158;-79
2023/03/22 02:50:26;;;;;;;11.23;7.10;;;;;;;9.39;100.00;94264.63;6211220;23;20153;-79
2023/03/22 02:52:56;;;;;;;9.93;6.97;;;;;;;9.43;100.00;94263.19;6208523;23;20194;-80
2023/03/22 02:55:30;;;;;;;10.77;7.67;;;;;;;9.50;100.00;94271.66;6209747;23;20194;-79
2023/03/22 02:58:01;;;;;;;12.50;8.53;;;;;;;9.53;100.00;94271.19;6210872;23;20198;-80
2023/03/22 03:00:28;;;;;;;14.17;7.63;;;;;;;9.50;100.00;94266.47;6212355;23;20194;-80
2023/03/22 03:03:00;;;;;;;9.87;6.50;;;;;;;9.58;100.00;94275.75;6210685;23;20660;-79
2023/03/22 03:05:31;;;;;;;9.37;6.80;;;;;;;9.55;100.00;94276.94;6210651;23;20166;-80
2023/03/22 03:08:02;;;;;;;8.33;6.57;;;;;;;9.53;100.00;94273.00;6211426;23;20154;-80
2023/03/22 03:10:31;;;;;;;9.30;6.80;;;;;;;9.53;100.00;94276.38;6211082;23;20165;-80
2023/03/22 03:12:58;;;;;;;8.70;7.13;;;;;;;9.53;100.00;94273.00;6212173;23;20166;-79
2023/03/22 03:15:25;;;;;;;8.93;7.00;;;;;;;9.49;100.00;94271.88;6210459;23;20225;-79
2023/03/22 03:18:14;;;;;;;14.10;8.80;;;;;;;9.48;100.00;94267.69;6211041;23;20202;-79
2023/03/22 03:20:55;;;;;;;15.07;10.50;;;;;;;9.56;100.00;94275.16;6209893;23;20170;-79
2023/03/22 03:23:33;;;;;;;11.07;8.23;;;;;;;9.49;100.00;94271.88;6208913;23;20177;-78
2023/03/22 03:26:07;;;;;;;9.63;7.17;;;;;;;9.53;100.00;94275.59;6210729;23;20159;-79
2023/03/22 03:28:38;;;;;;;10.60;6.50;;;;;;;9.54;100.00;94277.97;6211573;23;20168;-79
2023/03/22 03:31:17;;;;;;;7.00;5.37;;;;;;;9.51;100.00;94278.41;6209629;23;20164;-78
2023/03/22 03:33:51;;;;;;;6.50;5.53;;;;;;;9.53;100.00;94286.75;6211094;23;20150;-78
2023/03/22 03:36:20;;;;;;;8.90;6.00;;;;;;;9.56;100.00;94285.53;6210720;23;20549;-78
2023/03/22 03:38:50;;;;;;;9.33;6.73;;;;;;;9.56;100.00;94281.13;6210138;23;20201;-80
2023/03/22 03:41:22;;;;;;;13.37;7.67;;;;;;;9.63;100.00;94286.25;6211472;23;20210;-78
2023/03/22 03:43:50;;;;;;;10.63;6.80;;;;;;;9.65;100.00;94284.22;6209433;23;20535;-78
2023/03/22 03:46:17;;;;;;;8.73;6.07;;;;;;;9.61;100.00;94283.06;6210866;23;20172;-80
2023/03/22 03:48:47;;;;;;;9.03;6.23;;;;;;;9.55;100.00;94289.94;6211834;23;20170;-79
2023/03/22 03:51:15;;;;;;;8.77;5.90;;;;;;;9.56;100.00;94290.72;6212199;23;20170;-80
2023/03/22 03:53:42;;;;;;;9.43;5.83;;;;;;;9.49;100.00;94292.63;6211997;23;20166;-80
2023/03/22 03:56:10;;;;;;;8.70;6.03;;;;;;;9.53;100.00;94298.94;6211678;23;20645;-81
2023/03/22 03:58:38;;;;;;;10.07;6.10;;;;;;;9.52;100.00;94294.78;6210658;23;20304;-81
2023/03/22 04:01:06;;;;;;;6.97;5.57;;;;;;;9.47;100.00;94303.19;6212890;23;20166;-79
2023/03/22 04:03:32;;;;;;;6.93;4.73;;;;;;;9.51;100.00;94293.19;6213819;23;20174;-77
2023/03/22 04:05:59;;;;;;;7.70;5.10;;;;;;;9.46;100.00;94309.41;6212039;23;20178;-77
2023/03/22 04:08:26;;;;;;;10.50;7.10;;;;;;;9.46;100.00;94304.22;6211498;23;20171;-77
2023/03/22 04:10:53;;;;;;;15.80;8.47;;;;;;;9.45;100.00;94301.84;6210596;23;20607;-78
2023/03/22 04:13:23;;;;;;;17.23;10.40;;;;;;;9.42;100.00;94297.88;6212234;23;20176;-77
2023/03/22 04:15:56;;;;;;;13.83;9.60;;;;;;;9.45;100.00;94301.84;6212348;23;20170;-79
2023/03/22 04:18:23;;;;;;;14.43;10.13;;;;;;;9.47;100.00;94305.00;6211455;23;20178;-78
2023/03/22 04:20:52;;;;;;;14.47;9.37;;;;;;;9.47;100.00;94310.19;6211158;23;20173;-78
2023/03/22 04:23:21;;;;;;;13.97;9.00;;;;;;;9.45;100.00;94300.03;6210946;23;20174;-79
2023/03/22 04:25:58;;;;;;;13.00;8.43;;;;;;;9.41;100.00;94308.47;6212425;23;20570;-79
2023/03/22 04:28:26;;;;;;;14.17;7.73;;;;;;;9.34;100.00;94303.38;6211720;23;20154;-79
2023/03/22 04:30:56;;;;;;;12.47;7.43;;;;;;;9.34;100.00;94307.78;6211724;23;20217;-80
2023/03/22 04:33:23;;;;;;;13.60;8.10;;;;;;;9.37;100.00;94304.75;6211496;23;20217;-78
2023/03/22 04:35:55;;;;;;;12.20;7.20;;;;;;;9.43;100.00;94306.47;6211568;23;20657;-78
2023/03/22 04:38:24;;;;;;;11.40;8.97;;;;;;;9.37;100.00;94312.53;6213057;23;20186;-79
2023/03/22 04:40:50;;;;;;;11.70;9.13;;;;;;;9.33;100.00;94314.75;6213364;23;20265;-78
2023/03/22 04:43:17;;;;;;;13.10;9.63;;;;;;;9.13;100.00;94309.81;6211307;23;20173;-78
2023/03/22 04:45:45;;;;;;;11.20;8.63;;;;;;;9.18;100.00;94318.75;6211932;23;20516;-79
2023/03/22 04:48:13;;;;;;;9.33;7.80;;;;;;;9.15;100.00;94314.00;6213664;23;20198;-79
2023/03/22 04:50:40;;;;;;;11.97;8.50;;;;;;;9.17;100.00;94320.53;6213132;23;20174;-80
2023/03/22 04:53:08;;;;;;;12.33;8.40;;;;;;;9.19;100.00;94325.50;6212354;23;20197;-79
2023/03/22 04:55:35;;;;;;;12.70;8.90;;;;;;;9.18;100.00;94329.88;6212124;23;20174;-80
2023/03/22 04:58:02;;;;;;;11.57;8.33;;;;;;;9.18;100.00;94329.88;6212184;23;20348;-78
2023/03/22 05:00:29;;;;;;;10.93;8.50;;;;;;;9.19;100.00;94330.69;6213789;23;20198;-79
2023/03/22 05:02:58;;;;;;;13.30;8.53;;;;;;;9.21;100.00;94331.25;6211536;23;20285;-79
2023/03/22 05:05:26;;;;;;;13.93;10.10;;;;;;;9.21;100.00;94336.44;6211144;23;20173;-78
2023/03/22 05:07:53;;;;;;;12.77;9.40;;;;;;;9.20;100.00;94335.66;6211484;23;20186;-80
2023/03/22 05:10:20;;;;;;;10.03;7.23;;;;;;;9.17;100.00;94330.13;6213468;23;20622;-80
2023/03/22 05:12:46;;;;;;;7.53;6.43;;;;;;;9.25;100.00;94337.59;6211659;23;20173;-84
2023/03/22 05:15:14;;;;;;;7.53;5.80;;;;;;;9.26;100.00;94345.19;6211980;23;20174;-84
2023/03/22 05:17:41;;;;;;;6.53;5.63;;;;;;;9.26;100.00;94334.81;6211266;23;20166;-81
2023/03/22 05:20:08;;;;;;;7.03;5.63;;;;;;;9.28;100.00;94342.34;6213555;23;20217;-81
2023/03/22 05:22:39;;;;;;;8.77;7.07;;;;;;;9.24;100.00;94349.75;6213368;23;20249;-79
2023/03/22 05:25:07;;;;;;;9.00;7.13;;;;;;;9.27;100.00;94348.53;6211521;23;20159;-79
2023/03/22 05:27:34;;;;;;;9.67;6.80;;;;;;;9.29;100.00;94343.94;6211658;23;20189;-79
2023/03/22 05:30:01;;;;;;;10.87;8.70;;;;;;;9.26;100.00;94352.94;6209550;23;20169;-80
2023/03/22 05:32:28;;;;;;;20.03;15.77;;;;;;;9.36;100.00;94357.63;6212106;23;20167;-80
2023/03/22 05:34:55;;;;;;;19.60;15.33;;;;;;;9.33;100.00;94353.66;6210528;23;20170;-79
2023/03/22 05:37:22;;;;;;;18.77;14.80;;;;;;;9.35;100.00;94361.22;6210558;23;20174;-79
2023/03/22 05:39:50;;;;;;;15.93;13.17;;;;;;;9.39;100.00;94359.78;6210801;23;20190;-79
2023/03/22 05:42:17;;;;;;;14.77;10.10;;;;;;;9.41;100.00;94349.97;6211431;23;20335;-80
2023/03/22 05:44:44;;;;;;;13.57;10.10;;;;;;;9.43;100.00;94351.34;6213522;23;20216;-80
2023/03/22 05:47:11;;;;;;;13.73;9.77;;;;;;;9.50;100.00;94361.63;6211699;23;20162;-80
2023/03/22 05:49:38;;;;;;;11.90;9.17;;;;;;;9.51;100.00;94358.84;6211446;23;20170;-79
2023/03/22 05:52:06;;;;;;;13.33;8.93;;;;;;;9.56;100.00;94352.97;6211309;23;20177;-81
2023/03/22 05:54:33;;;;;;;10.77;7.90;;;;;;;9.61;100.00;94373.84;6213240;23;20233;-81
2023/03/22 05:57:04;;;;;;;10.47;7.63;;;;;;;9.61;100.00;94364.28;6210864;23;20173;-80
2023/03/22 05:59:31;;;;;;;9.00;7.13;;;;;;;9.60;100.00;94370.50;6212121;23;20194;-80
2023/03/22 06:02:00;;;;;;;9.97;7.63;;;;;;;9.59;100.00;94375.88;6211644;23;20166;-80
2023/03/22 06:04:27;;;;;;;9.57;7.53;;;;;;;9.60;100.00;94380.06;6212895;23;20177;-81
2023/03/22 06:06:54;;;;;;;7.53;5.50;;;;;;;9.57;100.00;94376.13;6212802;23;20167;-82
2023/03/22 06:09:21;;;;;;;9.57;5.63;;;;;;;9.60;100.00;94377.47;6211612;23;20204;-80
2023/03/22 06:11:47;;;;;;;7.30;5.60;;;;;;;9.61;100.00;94377.25;6212124;23;20173;-81
2023/03/22 06:14:16;;;;;;;7.57;5.93;;;;;;;9.69;100.00;94378.78;6210980;23;20177;-79
2023/03/22 06:16:42;;;;;;;7.77;6.60;;;;;;;9.65;100.00;94372.41;6213198;23;20245;-79
2023/03/22 06:19:09;;;;;;;10.47;7.20;;;;;;;9.73;100.00;94387.69;6210837;23;20198;-80
2023/03/22 06:21:36;;;;;;;8.43;7.07;;;;;;;9.76;100.00;94387.25;6207490;23;20803;-80
2023/03/22 06:24:03;;;;;;;8.07;7.00;;;;;;;9.75;100.00;94384.88;6210110;23;20167;-78
2023/03/22 06:26:30;;;;;;;13.27;9.43;;;;;;;9.78;100.00;94390.44;6211303;23;20177;-79
2023/03/22 06:28:57;;;;;;;12.50;9.67;;;;;;;9.77;100.00;94383.66;6211568;23;20162;-81
2023/03/22 06:31:25;;;;;;;39.40;31.60;;;;;;;9.86;100.00;94390.13;6210493;23;20181;-79
2023/03/22 06:33:52;;;;;;;39.37;30.47;;;;;;;9.93;100.00;94387.41;6210647;23;20170;-80
2023/03/22 06:36:19;;;;;;;23.70;16.27;;;;;;;9.92;100.00;94393.63;6211645;23;20645;-81
2023/03/22 06:38:45;;;;;;;19.87;15.53;;;;;;;9.79;100.00;94392.00;6213861;23;20166;-81
2023/03/22 06:41:12;;;;;;;24.27;18.17;;;;;;;9.86;100.00;94402.31;6218462;23;20174;-80
2023/03/22 06:43:39;;;;;;;23.10;15.57;;;;;;;9.81;100.00;94405.56;6213259;23;20261;-81
2023/03/22 06:46:06;;;;;;;12.80;9.77;;;;;;;9.69;100.00;94402.13;6211739;23;20180;-82
2023/03/22 06:48:35;;;;;;;13.73;10.17;;;;;;;9.75;100.00;94401.25;6212937;23;20336;-81
2023/03/22 06:51:01;;;;;;;12.67;9.30;;;;;;;9.77;100.00;94403.63;6209555;23;20174;-81
2023/03/22 06:53:29;;;;;;;11.67;9.00;;;;;;;9.77;100.00;94404.41;6210409;23;20166;-79
2023/03/22 06:55:55;;;;;;;11.77;7.63;;;;;;;9.78;100.00;94411.19;6227334;23;20172;-80
2023/03/22 06:58:22;;;;;;;13.30;7.70;;;;;;;9.91;100.00;94405.81;6229800;23;20174;-84
2023/03/22 07:00:49;;;;;;;12.40;8.33;;;;;;;9.93;100.00;94410.78;6228498;23;20194;-79
2023/03/22 07:03:16;;;;;;;12.40;8.03;;;;;;;9.98;100.00;94416.94;6228972;23;20173;-81
2023/03/22 07:05:44;;;;;;;9.73;6.77;;;;;;;9.91;100.00;94410.22;6224759;23;20166;-81
2023/03/22 07:08:11;;;;;;;8.60;6.50;;;;;;;9.94;100.00;94417.56;6212580;23;20533;-81
2023/03/22 07:10:38;;;;;;;8.83;6.73;;;;;;;9.98;100.00;94418.72;6213809;23;20238;-81
2023/03/22 07:13:05;;;;;;;7.67;6.43;;;;;;;10.00;100.00;94411.50;6213393;23;20170;-82
2023/03/22 07:15:33;;;;;;;9.10;6.63;;;;;;;9.92;100.00;94417.00;6213575;23;20173;-83
2023/03/22 07:18:00;;;;;;;9.70;6.93;;;;;;;9.84;100.00;94409.53;6212555;23;20220;-81
2023/03/22 07:20:27;;;;;;;9.83;7.47;;;;;;;10.03;100.00;94421.44;6212594;23;20186;-82
2023/03/22 07:22:55;;;;;;;8.27;6.60;;;;;;;10.11;100.00;94426.31;6215002;23;20170;-81
2023/03/22 07:25:22;;;;;;;9.33;7.27;;;;;;;10.12;100.00;94431.31;6211577;23;20192;-82
2023/03/22 07:27:48;;;;;;;10.13;7.90;;;;;;;10.01;100.00;94437.25;6211529;23;20540;-82
2023/03/22 07:30:15;;;;;;;11.17;8.10;;;;;;;10.06;100.00;94444.38;6211633;23;20186;-83
2023/03/22 07:32:42;;;;;;;11.20;7.80;;;;;;;10.13;100.00;94442.50;6212819;23;20163;-81
2023/03/22 07:35:09;;;;;;;10.27;8.00;;;;;;;10.19;100.00;94439.81;6213025;23;20166;-82
2023/03/22 07:37:36;;;;;;;12.63;8.57;;;;;;;10.21;100.00;94440.41;6214098;23;20170;-81
2023/03/22 07:40:07;;;;;;;8.27;7.13;;;;;;;10.25;100.00;94443.34;6214640;23;20220;-82
2023/03/22 07:42:34;;;;;;;8.00;6.30;;;;;;;10.30;100.00;94443.50;6214601;23;20178;-80
2023/03/22 07:45:01;;;;;;;15.67;8.13;;;;;;;10.31;100.00;94447.66;6215171;23;20161;-81
2023/03/22 07:47:28;;;;;;;14.47;8.90;;;;;;;10.31;100.00;94454.66;6214312;23;20166;-81
2023/03/22 07:49:55;;;;;;;17.20;9.40;;;;;;;10.29;100.00;94452.28;6208834;23;20170;-81
2023/03/22 07:52:25;;;;;;;17.20;12.63;;;;;;;10.29;100.00;94460.06;6214201;23;20174;-81
2023/03/22 07:54:51;;;;;;;14.00;9.93;;;;;;;10.25;100.00;94457.13;6215211;23;20642;-82
2023/03/22 07:57:20;;;;;;;9.73;7.17;;;;;;;10.19;100.00;94452.81;6213769;23;20658;-81
2023/03/22 07:59:46;;;;;;;11.00;7.87;;;;;;;10.18;100.00;94456.44;6213559;23;20194;-81
2023/03/22 08:02:16;;;;;;;11.73;9.13;;;;;;;10.10;100.00;94441.09;6213189;23;20166;-80
2023/03/22 08:04:43;;;;;;;16.63;12.33;;;;;;;10.08;100.00;94444.94;6215215;23;20173;-80
2023/03/22 08:07:10;;;;;;;15.40;12.53;;;;;;;10.15;100.00;94467.25;6214582;23;20173;-81
2023/03/22 08:09:37;;;;;;;36.17;29.00;;;;;;;10.17;100.00;94461.81;6212538;23;20170;-81
2023/03/22 08:12:04;;;;;;;22.23;16.87;;;;;;;10.18;100.00;94461.63;6211811;23;20173;-80
2023/03/22 08:14:33;;;;;;;23.13;18.60;;;;;;;10.19;100.00;94465.00;6212814;23;20170;-82
2023/03/22 08:17:00;;;;;;;37.73;30.40;;;;;;;10.01;100.00;94439.06;6214176;23;20549;-81
2023/03/22 08:19:27;;;;;;;35.93;29.97;;;;;;;10.14;100.00;94462.28;6213627;23;20245;-81
2023/03/22 08:21:54;;;;;;;24.43;19.53;;;;;;;10.14;100.00;94455.28;6212523;23;20182;-79
2023/03/22 08:24:20;;;;;;;26.90;20.87;;;;;;;10.18;100.00;94461.63;6212726;23;20178;-81
2023/03/22 08:26:48;;;;;;;22.97;13.97;;;;;;;10.18;100.00;94463.44;6214666;23;20197;-79
2023/03/22 08:29:15;;;;;;;16.30;11.17;;;;;;;10.22;100.00;94467.94;6213849;23;20240;-80
2023/03/22 08:31:43;;;;;;;16.00;10.80;;;;;;;10.14;100.00;94472.66;6213122;23;20170;-81
2023/03/22 08:34:10;;;;;;;18.27;12.13;;;;;;;10.06;100.00;94463.34;6213507;23;20166;-84
2023/03/22 08:36:38;;;;;;;20.17;12.27;;;;;;;10.01;100.00;94470.22;6213557;23;20204;-80
2023/03/22 08:39:05;;;;;;;23.63;13.17;;;;;;;10.07;100.00;94471.94;6214256;23;20181;-82
2023/03/22 08:41:32;;;;;;;14.57;10.57;;;;;;;9.95;100.00;94471.88;6213820;23;20193;-81
2023/03/22 08:43:59;;;;;;;19.53;11.07;;;;;;;9.74;100.00;94442.97;6213260;23;20166;-80
2023/03/22 08:46:28;;;;;;;16.73;11.93;;;;;;;9.76;100.00;94465.09;6212078;23;20174;-81
2023/03/22 08:48:59;;;;;;;20.00;13.47;;;;;;;9.85;100.00;94468.97;6212772;23;20174;-82
2023/03/22 08:51:26;;;;;;;19.27;13.90;;;;;;;10.06;100.00;94478.13;6212597;23;20162;-82
2023/03/22 08:53:53;;;;;;;18.73;14.20;;;;;;;10.10;100.00;94476.69;6211962;23;20166;-81
2023/03/22 08:56:21;;;;;;;21.23;13.83;;;;;;;9.94;100.00;94482.47;6212169;23;20189;-81
2023/03/22 08:58:48;;;;;;;19.53;12.83;;;;;;;9.89;100.00;94474.53;6211799;23;20259;-81
2023/03/22 09:01:16;;;;;;;16.53;10.97;;;;;;;9.81;100.00;94482.63;6213195;23;20545;-82
2023/03/22 09:03:43;;;;;;;16.17;10.70;;;;;;;9.69;100.00;94475.56;6212247;23;20170;-81
2023/03/22 09:06:12;;;;;;;15.57;10.53;;;;;;;9.45;100.00;94473.03;6212302;23;20173;-81
2023/03/22 09:08:40;;;;;;;15.57;10.40;;;;;;;9.33;100.00;94472.13;6212078;23;20213;-81
2023/03/22 09:11:09;;;;;;;15.33;11.00;;;;;;;9.35;100.00;94476.09;6213246;23;20170;-81
2023/03/22 09:13:36;;;;;;;16.60;11.67;;;;;;;9.33;100.00;94467.75;6211988;23;20178;-80
2023/03/22 09:16:03;;;;;;;21.63;14.23;;;;;;;9.31;100.00;94459.41;6209676;23;20171;-81
2023/03/22 09:18:30;;;;;;;17.73;12.70;;;;;;;9.60;100.00;94479.47;6212147;23;20166;-82
2023/03/22 09:20:57;;;;;;;13.50;9.40;;;;;;;9.76;100.00;94485.84;6211668;23;20240;-83
2023/03/22 09:23:25;;;;;;;11.03;8.40;;;;;;;9.74;100.00;94490.47;6215213;23;20177;-82
2023/03/22 09:25:52;;;;;;;9.73;6.97;;;;;;;9.64;100.00;94485.78;6212495;23;20173;-85
2023/03/22 09:28:19;;;;;;;9.90;7.33;;;;;;;9.51;100.00;94472.16;6211452;23;20166;-84
2023/03/22 09:30:46;;;;;;;11.70;7.33;;;;;;;9.61;100.00;94493.19;6210581;23;20167;-83
2023/03/22 09:33:13;;;;;;;11.13;7.13;;;;;;;9.61;100.00;94478.44;6212610;23;20170;-83
2023/03/22 09:35:41;;;;;;;10.63;7.33;;;;;;;9.69;100.00;94483.34;6211396;23;20177;-82
2023/03/22 09:38:09;;;;;;;6.17;4.67;;;;;;;9.53;100.00;94475.31;6211737;23;20237;-83
2023/03/22 09:40:43;;;;;;;8.93;5.30;;;;;;;9.44;100.00;94463.66;6211904;23;20198;-82
2023/03/22 09:43:15;;;;;;;6.27;4.83;;;;;;;9.17;100.00;94411.28;6212197;23;20200;-82
2023/03/22 09:45:54;;;;;;;9.20;6.50;;;;;;;9.39;100.00;94432.38;6214021;23;20249;-82
2023/03/22 09:48:24;;;;;;;10.17;6.83;;;;;;;9.60;100.00;94479.47;6212303;23;20248;-81
2023/03/22 09:50:54;;;;;;;8.93;6.80;;;;;;;9.60;100.00;94484.66;6216567;23;20250;-81
2023/03/22 09:53:24;;;;;;;8.57;5.50;;;;;;;9.37;100.00;94460.34;6221748;23;20150;-79
2023/03/22 09:56:01;;;;;;;9.00;6.43;;;;;;;9.16;100.00;94421.84;6228519;23;20245;-82
2023/03/22 09:58:32;;;;;;;11.57;8.13;;;;;;;9.61;100.00;94482.81;6226762;23;20172;-83
2023/03/22 10:01:04;;;;;;;8.17;6.70;;;;;;;9.73;100.00;94488.09;6221096;23;20174;-82
2023/03/22 10:03:57;;;;;;;6.57;5.37;;;;;;;9.70;100.00;94481.53;6221868;23;20162;-81
2023/03/22 10:06:25;;;;;;;8.53;6.53;;;;;;;9.79;100.00;94488.03;6216783;23;20154;-80
2023/03/22 10:09:02;;;;;;;12.87;8.27;;;;;;;9.83;100.00;94473.59;6219891;23;20173;-80
2023/03/22 10:11:41;;;;;;;13.90;8.77;;;;;;;9.96;100.00;94489.00;6229394;23;20158;-82
2023/03/22 10:14:24;;;;;;;17.70;11.27;;;;;;;10.03;100.00;94492.34;6226426;23;20162;-81
2023/03/22 10:16:54;;;;;;;19.10;13.50;;;;;;;10.11;100.00;94492.03;6222061;23;20154;-81
2023/03/22 10:19:26;;;;;;;20.83;14.00;;;;;;;10.18;100.00;94494.59;6216088;23;20167;-82
2023/03/22 10:21:56;;;;;;;20.70;14.03;;;;;;;10.21;100.00;94491.56;6219469;23;20745;-82
2023/03/22 10:24:28;;;;;;;21.07;13.03;;;;;;;10.29;100.00;94490.44;6215707;23;20215;-81
2023/03/22 10:26:56;;;;;;;15.10;11.27;;;;;;;10.44;100.00;94488.25;6216551;23;20150;-81
2023/03/22 10:29:29;;;;;;;12.07;8.40;;;;;;;10.52;100.00;94499.13;6213710;23;20162;-81
2023/03/22 10:31:57;;;;;;;12.37;7.87;;;;;;;10.52;100.00;94480.13;6218395;23;20161;-81
2023/03/22 10:34:29;;;;;;;4.17;3.43;;;;;;;10.61;100.00;94505.59;6214898;23;20170;-80
2023/03/22 10:37:00;;;;;;;4.77;3.33;;;;;;;10.68;100.00;94500.28;6215635;23;20162;-81
2023/03/22 10:39:31;;;;;;;5.17;4.10;;;;;;;10.70;100.00;94501.69;6216740;23;20265;-82
2023/03/22 10:42:02;;;;;;;5.60;4.40;;;;;;;10.63;100.00;94487.97;6211007;23;20677;-82
2023/03/22 10:44:35;;;;;;;5.33;4.03;;;;;;;10.68;100.00;94476.91;6213705;23;20154;-82
2023/03/22 10:47:09;;;;;;;5.77;4.37;;;;;;;10.80;100.00;94495.91;6212280;23;20182;-82
2023/03/22 10:49:39;;;;;;;5.37;3.77;;;;;;;10.80;100.00;94480.31;6218170;23;20167;-84
2023/03/22 10:52:21;;;;;;;5.20;3.67;;;;;;;10.89;100.00;94496.38;6222390;23;20162;-82
2023/03/22 10:54:48;;;;;;;6.90;4.30;;;;;;;10.88;100.00;94493.00;6218010;23;20203;-83
2023/03/22 10:57:16;;;;;;;4.87;4.37;;;;;;;10.88;100.00;94493.00;6211674;23;20173;-83
2023/03/22 10:59:47;;;;;;;7.07;4.70;;;;;;;10.95;100.00;94493.69;6211316;23;20202;-83
2023/03/22 11:02:22;;;;;;;7.47;5.10;;;;;;;11.02;100.00;94493.59;6211249;23;20186;-84
2023/03/22 11:04:52;;;;;;;7.83;4.80;;;;;;;11.04;100.00;94494.16;6212452;23;20181;-84
2023/03/22 11:07:32;;;;;;;5.63;4.77;;;;;;;11.10;100.00;94495.84;6211746;23;20197;-82
2023/03/22 11:10:12;;;;;;;6.37;4.43;;;;;;;11.12;100.00;94492.00;6210716;23;20158;-83
2023/03/22 11:12:46;;;;;;;6.20;4.23;;;;;;;11.09;100.00;94492.47;6212516;23;20154;-82
2023/03/22 11:15:24;;;;;;;7.10;5.20;;;;;;;10.98;100.00;94490.66;6212424;23;20158;-82
2023/03/22 11:17:51;;;;;;;9.07;5.53;;;;;;;10.91;100.00;94494.38;6214653;23;20154;-80
2023/03/22 11:20:19;;;;;;;19.80;10.70;;;;;;;10.86;100.00;94489.81;6215492;23;20166;-82
2023/03/22 11:22:48;;;;;;;22.27;14.20;;;;;;;10.83;100.00;94485.06;6217863;23;20177;-81
2023/03/22 11:25:19;;;;;;;25.90;14.40;;;;;;;10.85;100.00;94485.63;6221691;23;20170;-79
2023/03/22 11:27:53;;;;;;;20.90;13.53;;;;;;;10.82;100.00;94483.50;6216934;23;20820;-83
2023/03/22 11:30:22;;;;;;;27.80;18.70;;;;;;;10.71;100.00;94486.84;6222232;23;20158;-82
2023/03/22 11:32:50;;;;;;;30.73;19.57;;;;;;;10.63;100.00;94482.78;6214610;23;20177;-83
2023/03/22 11:35:41;;;;;;;23.13;14.70;;;;;;;10.54;100.00;94483.28;6212643;23;20198;-83